createdAt,value
2019-06-01T00:00:11.377Z,16.06
2019-06-01T00:02:35.953Z,16.00
2019-06-01T00:05:06.122Z,15.97
2019-06-01T00:07:34.886Z,15.86
2019-06-01T00:10:05.096Z,15.97
2019-06-01T00:12:33.798Z,15.88
2019-06-01T00:15:02.818Z,15.86
2019-06-01T00:17:31.519Z,15.85
2019-06-01T00:20:00.261Z,15.80
2019-06-01T00:22:28.969Z,15.82
2019-06-01T00:24:57.689Z,15.73
2019-06-01T00:27:26.404Z,15.65
2019-06-01T00:29:55.105Z,15.54
2019-06-01T00:32:23.849Z,15.49
2019-06-01T00:34:52.655Z,15.30
2019-06-01T00:37:21.362Z,15.28
2019-06-01T00:39:50.083Z,15.20
2019-06-01T00:42:19.298Z,15.29
2019-06-01T00:44:48.513Z,15.43
2019-06-01T00:47:17.328Z,15.50
2019-06-01T00:49:46.726Z,15.63
2019-06-01T00:52:18.460Z,15.70
2019-06-01T00:54:47.379Z,15.69
2019-06-01T00:57:16.089Z,15.71
2019-06-01T00:59:45.894Z,15.76
2019-06-01T01:02:14.745Z,15.76
2019-06-01T01:04:44.281Z,15.78
2019-06-01T01:07:13.130Z,15.80
2019-06-01T01:09:41.878Z,15.85
2019-06-01T01:12:10.696Z,15.86
2019-06-01T01:14:39.407Z,15.92
2019-06-01T01:17:08.138Z,15.91
2019-06-01T01:19:36.842Z,15.88
2019-06-01T01:22:06.251Z,15.97
2019-06-01T01:24:35.010Z,15.97
2019-06-01T01:27:03.713Z,15.98
2019-06-01T01:29:32.425Z,16.00
2019-06-01T01:32:01.170Z,16.02
2019-06-01T01:34:29.881Z,16.00
2019-06-01T01:36:58.584Z,16.00
2019-06-01T01:39:27.335Z,15.99
2019-06-01T01:41:56.340Z,16.01
2019-06-01T01:44:25.014Z,16.05
2019-06-01T01:46:54.876Z,16.05
2019-06-01T01:49:23.661Z,16.20
2019-06-01T01:51:52.889Z,16.27
2019-06-01T01:54:21.704Z,16.17
2019-06-01T01:56:50.410Z,16.27
2019-06-01T01:59:19.118Z,16.25
2019-06-01T02:01:47.866Z,16.25
2019-06-01T02:04:16.573Z,16.25
2019-06-01T02:06:45.276Z,16.18
2019-06-01T02:09:14.021Z,15.95
2019-06-01T02:11:42.747Z,15.97
2019-06-01T02:14:11.454Z,15.94
2019-06-01T02:16:40.199Z,15.91
2019-06-01T02:19:08.906Z,15.90
2019-06-01T02:21:37.612Z,15.86
2019-06-01T02:24:06.357Z,15.86
2019-06-01T02:26:35.067Z,15.78
2019-06-01T02:29:04.343Z,15.71
2019-06-01T02:31:41.577Z,15.74
2019-06-01T02:34:06.042Z,15.67
2019-06-01T02:36:34.171Z,15.65
2019-06-01T02:39:05.287Z,15.67
2019-06-01T02:41:34.122Z,15.67
2019-06-01T02:44:03.912Z,15.58
2019-06-01T02:46:35.760Z,15.66
2019-06-01T02:49:04.232Z,15.67
2019-06-01T02:51:34.170Z,15.58
2019-06-01T02:54:04.073Z,15.66
2019-06-01T02:56:32.921Z,15.65
2019-06-01T02:59:02.335Z,15.53
2019-06-01T03:01:36.470Z,15.46
2019-06-01T03:04:08.378Z,15.58
2019-06-01T03:06:39.355Z,15.64
2019-06-01T03:09:10.050Z,15.69
2019-06-01T03:11:40.568Z,15.55
2019-06-01T03:14:11.179Z,15.68
2019-06-01T03:16:41.938Z,15.66
2019-06-01T03:19:12.134Z,16.07
2019-06-01T03:21:43.606Z,16.38
2019-06-01T03:24:13.561Z,16.69
2019-06-01T03:26:44.758Z,17.12
2019-06-01T03:29:18.856Z,17.31
2019-06-01T03:31:47.682Z,17.66
2019-06-01T03:34:16.391Z,17.75
2019-06-01T03:36:45.235Z,17.96
2019-06-01T03:39:13.942Z,18.35
2019-06-01T03:41:42.746Z,18.71
2019-06-01T03:44:12.820Z,19.10
2019-06-01T03:46:41.791Z,19.30
2019-06-01T03:49:11.862Z,19.49
2019-06-01T03:51:40.809Z,19.78
2019-06-01T03:54:10.138Z,20.08
2019-06-01T03:56:38.998Z,20.15
2019-06-01T03:59:07.745Z,20.61
2019-06-01T04:01:36.456Z,20.86
2019-06-01T04:04:05.575Z,21.05
2019-06-01T04:06:34.296Z,21.07
2019-06-01T04:09:03.618Z,21.07
2019-06-01T04:11:32.384Z,21.69
2019-06-01T04:14:01.546Z,21.96
2019-06-01T04:16:30.322Z,22.07
2019-06-01T04:18:59.026Z,22.55
2019-06-01T04:21:27.773Z,22.66
2019-06-01T04:23:56.476Z,22.78
2019-06-01T04:26:25.176Z,22.82
2019-06-01T04:28:53.928Z,23.08
2019-06-01T04:31:22.638Z,23.62
2019-06-01T04:33:51.345Z,23.62
2019-06-01T04:36:20.089Z,24.06
2019-06-01T04:38:48.792Z,24.13
2019-06-01T04:41:17.509Z,24.53
2019-06-01T04:43:46.258Z,24.48
2019-06-01T04:46:14.969Z,24.35
2019-06-01T04:48:43.677Z,24.19
2019-06-01T04:51:13.471Z,23.94
2019-06-01T04:53:42.322Z,23.66
2019-06-01T04:56:11.204Z,23.78
2019-06-01T04:58:39.943Z,23.90
2019-06-01T05:01:09.008Z,23.58
2019-06-01T05:03:37.824Z,23.48
2019-06-01T05:06:07.173Z,23.41
2019-06-01T05:08:35.949Z,23.87
2019-06-01T05:11:06.624Z,24.13
2019-06-01T05:13:35.212Z,24.01
2019-06-01T05:16:04.118Z,23.86
2019-06-01T05:18:32.820Z,24.13
2019-06-01T05:21:01.564Z,24.21
2019-06-01T05:23:30.267Z,24.07
2019-06-01T05:25:59.066Z,24.42
2019-06-01T05:28:27.820Z,24.59
2019-06-01T05:30:56.514Z,24.05
2019-06-01T05:33:36.853Z,23.66
2019-06-01T05:35:55.700Z,23.72
2019-06-01T05:38:24.399Z,23.73
2019-06-01T05:40:53.118Z,23.93
2019-06-01T05:43:21.870Z,24.61
2019-06-01T05:45:50.581Z,24.79
2019-06-01T05:48:25.158Z,24.99
2019-06-01T05:50:49.744Z,24.64
2019-06-01T05:53:19.875Z,24.62
2019-06-01T05:55:48.894Z,24.74
2019-06-01T05:58:17.600Z,24.90
2019-06-01T06:00:47.039Z,24.58
2019-06-01T06:03:20.419Z,24.58
2019-06-01T06:05:46.217Z,24.90
2019-06-01T06:08:15.974Z,25.04
2019-06-01T06:10:45.046Z,24.46
2019-06-01T06:13:13.749Z,23.37
2019-06-01T06:15:42.457Z,22.76
2019-06-01T06:18:11.625Z,22.35
2019-06-01T06:20:40.479Z,21.94
2019-06-01T06:23:09.187Z,21.59
2019-06-01T06:25:39.641Z,21.74
2019-06-01T06:28:08.328Z,21.46
2019-06-01T06:30:37.173Z,21.37
2019-06-01T06:33:06.240Z,21.36
2019-06-01T06:35:34.942Z,21.32
2019-06-01T06:38:03.659Z,21.31
2019-06-01T06:40:32.367Z,21.35
2019-06-01T06:43:01.117Z,21.63
2019-06-01T06:45:29.820Z,21.75
2019-06-01T06:47:58.529Z,21.66
2019-06-01T06:50:28.769Z,21.37
2019-06-01T06:52:57.480Z,21.48
2019-06-01T06:55:26.277Z,21.30
2019-06-01T06:57:54.985Z,21.54
2019-06-01T07:00:24.815Z,21.69
2019-06-01T07:02:53.684Z,21.60
2019-06-01T07:05:23.436Z,21.51
2019-06-01T07:07:52.352Z,21.60
2019-06-01T07:10:22.094Z,21.74
2019-06-01T07:12:51.457Z,21.87
2019-06-01T07:15:21.403Z,22.04
2019-06-01T07:17:50.262Z,22.17
2019-06-01T07:20:19.537Z,22.28
2019-06-01T07:22:48.285Z,22.29
2019-06-01T07:25:16.980Z,22.22
2019-06-01T07:27:45.765Z,22.26
2019-06-01T07:30:14.766Z,22.04
2019-06-01T07:32:43.473Z,22.05
2019-06-01T07:35:12.415Z,22.22
2019-06-01T07:37:41.130Z,22.30
2019-06-01T07:40:13.375Z,22.69
2019-06-01T07:42:41.879Z,22.61
2019-06-01T07:45:10.658Z,22.42
2019-06-01T07:47:39.386Z,22.27
2019-06-01T07:50:08.211Z,22.23
2019-06-01T07:52:36.988Z,22.62
2019-06-01T07:55:06.296Z,22.82
2019-06-01T07:57:35.031Z,22.97
2019-06-01T08:00:06.328Z,22.97
2019-06-01T08:02:35.055Z,23.09
2019-06-01T08:05:05.277Z,23.18
2019-06-01T08:07:34.046Z,22.81
2019-06-01T08:10:02.862Z,22.62
2019-06-01T08:12:31.730Z,22.94
2019-06-01T08:15:00.890Z,22.91
2019-06-01T08:17:30.103Z,23.12
2019-06-01T08:19:59.122Z,23.13
2019-06-01T08:22:28.036Z,23.02
2019-06-01T08:24:56.758Z,23.23
2019-06-01T08:27:26.518Z,23.36
2019-06-01T08:29:55.391Z,23.22
2019-06-01T08:32:24.563Z,23.16
2019-06-01T08:35:07.299Z,23.11
2019-06-01T08:37:25.084Z,23.22
2019-06-01T08:39:53.892Z,23.05
2019-06-01T08:42:23.451Z,22.81
2019-06-01T08:44:52.254Z,22.79
2019-06-01T08:47:21.026Z,22.94
2019-06-01T08:49:49.731Z,22.71
2019-06-01T08:52:18.436Z,22.96
2019-06-01T08:54:47.157Z,22.51
2019-06-01T08:57:15.874Z,22.95
2019-06-01T08:59:44.629Z,23.21
2019-06-01T09:02:13.340Z,23.29
2019-06-01T09:04:42.042Z,23.38
2019-06-01T09:07:11.028Z,23.64
2019-06-01T09:09:39.794Z,23.56
2019-06-01T09:12:08.540Z,23.48
2019-06-01T09:14:37.254Z,23.53
2019-06-01T09:17:05.955Z,23.74
2019-06-01T09:19:35.692Z,23.46
2019-06-01T09:22:04.707Z,22.82
2019-06-01T09:24:33.977Z,23.10
2019-06-01T09:27:02.854Z,23.43
2019-06-01T09:29:32.073Z,23.42
2019-06-01T09:32:01.023Z,23.33
2019-06-01T09:34:30.469Z,23.65
2019-06-01T09:36:59.240Z,23.89
2019-06-01T09:39:29.081Z,23.92
2019-06-01T09:41:57.837Z,23.83
2019-06-01T09:44:26.933Z,24.01
2019-06-01T09:46:55.676Z,24.23
2019-06-01T09:49:24.382Z,24.32
2019-06-01T09:51:53.128Z,24.38
2019-06-01T09:54:21.842Z,24.06
2019-06-01T09:56:50.557Z,24.24
2019-06-01T09:59:19.277Z,24.55
2019-06-01T10:01:48.052Z,24.74
2019-06-01T10:04:16.819Z,24.28
2019-06-01T10:06:45.520Z,23.67
2019-06-01T10:09:14.243Z,23.89
2019-06-01T10:11:42.952Z,23.62
2019-06-01T10:14:11.668Z,23.77
2019-06-01T10:16:40.385Z,23.94
2019-06-01T10:19:09.122Z,23.57
2019-06-01T10:21:38.114Z,23.69
2019-06-01T10:24:06.934Z,24.03
2019-06-01T10:26:35.808Z,24.36
2019-06-01T10:29:04.693Z,24.29
2019-06-01T10:31:34.740Z,24.20
2019-06-01T10:34:03.764Z,23.98
2019-06-01T10:36:33.965Z,23.85
2019-06-01T10:39:02.761Z,24.40
2019-06-01T10:41:31.471Z,23.75
2019-06-01T10:44:00.227Z,23.85
2019-06-01T10:46:28.933Z,24.49
2019-06-01T10:48:57.633Z,25.14
2019-06-01T10:51:26.398Z,25.44
2019-06-01T10:53:55.123Z,24.57
2019-06-01T10:56:23.822Z,24.53
2019-06-01T10:59:00.039Z,24.45
2019-06-01T11:01:23.172Z,24.06
2019-06-01T11:03:52.192Z,23.59
2019-06-01T11:06:36.229Z,24.21
2019-06-01T11:08:51.386Z,24.63
2019-06-01T11:11:20.128Z,24.82
2019-06-01T11:13:48.896Z,24.90
2019-06-01T11:16:17.605Z,24.82
2019-06-01T11:18:46.333Z,25.22
2019-06-01T11:21:15.078Z,25.40
2019-06-01T11:23:46.477Z,25.24
2019-06-01T11:26:14.237Z,25.56
2019-06-01T11:28:44.375Z,25.44
2019-06-01T11:31:13.167Z,25.14
2019-06-01T11:33:42.153Z,24.81
2019-06-01T11:36:11.037Z,25.26
2019-06-01T11:38:40.404Z,25.42
2019-06-01T11:41:09.322Z,25.41
2019-06-01T11:43:38.651Z,25.39
2019-06-01T11:46:07.467Z,25.22
2019-06-01T11:48:37.170Z,25.40
2019-06-01T11:51:05.955Z,25.63
2019-06-01T11:53:35.154Z,25.83
2019-06-01T11:56:03.918Z,25.61
2019-06-01T11:58:32.624Z,24.77
2019-06-01T12:01:07.948Z,25.13
2019-06-01T12:03:37.676Z,25.77
2019-06-01T12:06:06.588Z,25.91
2019-06-01T12:08:35.967Z,26.19
2019-06-01T12:11:04.911Z,26.28
2019-06-01T12:13:33.696Z,26.99
2019-06-01T12:16:02.408Z,26.99
2019-06-01T12:18:31.124Z,26.27
2019-06-01T12:20:59.894Z,25.23
2019-06-01T12:23:28.618Z,25.18
2019-06-01T12:25:57.371Z,25.22
2019-06-01T12:28:26.089Z,25.24
2019-06-01T12:30:54.834Z,25.41
2019-06-01T12:33:23.552Z,25.05
2019-06-01T12:35:52.269Z,24.62
2019-06-01T12:38:21.126Z,24.71
2019-06-01T12:40:49.846Z,25.15
2019-06-01T12:43:18.564Z,25.37
2019-06-01T12:45:47.912Z,24.97
2019-06-01T12:48:16.679Z,25.14
2019-06-01T12:50:49.057Z,25.50
2019-06-01T12:53:16.184Z,25.39
2019-06-01T12:55:45.255Z,25.21
2019-06-01T12:58:14.106Z,25.54
2019-06-01T13:00:43.954Z,25.68
2019-06-01T13:03:12.850Z,26.36
2019-06-01T13:05:41.633Z,26.37
2019-06-01T13:08:10.360Z,25.58
2019-06-01T13:10:39.122Z,25.29
2019-06-01T13:13:07.827Z,25.55
2019-06-01T13:15:36.530Z,25.46
2019-06-01T13:18:05.273Z,25.43
2019-06-01T13:20:33.988Z,25.48
2019-06-01T13:23:02.689Z,25.54
2019-06-01T13:25:31.396Z,25.67
2019-06-01T13:28:00.106Z,25.91
2019-06-01T13:30:28.893Z,26.15
2019-06-01T13:32:57.599Z,26.07
2019-06-01T13:35:26.303Z,26.52
2019-06-01T13:38:10.698Z,26.83
2019-06-01T13:40:25.464Z,27.25
2019-06-01T13:42:54.174Z,27.63
2019-06-01T13:45:22.890Z,27.13
2019-06-01T13:47:51.857Z,27.15
2019-06-01T13:50:20.690Z,26.78
2019-06-01T13:52:50.053Z,25.98
2019-06-01T13:55:18.828Z,25.99
2019-06-01T13:57:48.322Z,26.21
2019-06-01T14:00:29.836Z,25.80
2019-06-01T14:02:51.334Z,25.78
2019-06-01T14:05:18.554Z,25.61
2019-06-01T14:07:47.518Z,25.35
2019-06-01T14:10:17.718Z,25.15
2019-06-01T14:12:47.441Z,25.30
2019-06-01T14:15:16.263Z,25.29
2019-06-01T14:17:45.968Z,25.55
2019-06-01T14:20:14.759Z,26.05
2019-06-01T14:22:43.461Z,26.76
2019-06-01T14:25:14.925Z,26.43
2019-06-01T14:27:42.840Z,26.29
2019-06-01T14:30:11.950Z,26.62
2019-06-01T14:32:40.669Z,27.27
2019-06-01T14:35:09.579Z,27.11
2019-06-01T14:37:38.354Z,27.40
2019-06-01T14:40:07.578Z,26.55
2019-06-01T14:42:36.285Z,26.67
2019-06-01T14:45:07.910Z,26.40
2019-06-01T14:47:36.635Z,26.91
2019-06-01T14:50:07.452Z,26.67
2019-06-01T14:52:36.157Z,26.66
2019-06-01T14:55:06.959Z,26.32
2019-06-01T14:57:35.682Z,26.67
2019-06-01T15:00:08.939Z,26.71
2019-06-01T15:02:37.697Z,26.80
2019-06-01T15:05:08.110Z,26.79
2019-06-01T15:07:37.417Z,27.01
2019-06-01T15:10:10.327Z,27.10
2019-06-01T15:12:40.060Z,27.18
2019-06-01T15:15:10.035Z,27.14
2019-06-01T15:17:38.745Z,26.92
2019-06-01T15:20:09.336Z,26.88
2019-06-01T15:22:38.057Z,26.88
2019-06-01T15:25:09.998Z,26.90
2019-06-01T15:27:38.807Z,26.95
2019-06-01T15:30:09.718Z,27.02
2019-06-01T15:32:38.426Z,27.23
2019-06-01T15:35:08.811Z,27.23
2019-06-01T15:37:37.532Z,27.58
2019-06-01T15:40:11.228Z,27.55
2019-06-01T15:42:39.982Z,27.29
2019-06-01T15:45:09.688Z,27.31
2019-06-01T15:47:38.479Z,27.66
2019-06-01T15:50:09.642Z,28.39
2019-06-01T15:52:38.383Z,29.73
2019-06-01T15:55:10.943Z,30.19
2019-06-01T15:57:39.652Z,30.73
2019-06-01T16:00:09.921Z,30.24
2019-06-01T16:02:38.624Z,30.25
2019-06-01T16:05:07.772Z,30.42
2019-06-01T16:07:36.499Z,30.11
2019-06-01T16:10:08.342Z,28.89
2019-06-01T16:12:37.470Z,27.96
2019-06-01T16:15:10.586Z,27.28
2019-06-01T16:17:39.320Z,27.00
2019-06-01T16:20:11.632Z,26.27
2019-06-01T16:22:40.383Z,26.02
2019-06-01T16:25:09.409Z,25.61
2019-06-01T16:27:38.111Z,25.27
2019-06-01T16:30:08.845Z,25.47
2019-06-01T16:32:39.563Z,25.20
2019-06-01T16:35:08.163Z,25.32
2019-06-01T16:37:36.872Z,25.40
2019-06-01T16:40:09.915Z,25.49
2019-06-01T16:42:37.832Z,25.58
2019-06-01T16:45:10.053Z,26.15
2019-06-01T16:47:38.769Z,26.60
2019-06-01T16:50:08.886Z,26.91
2019-06-01T16:52:37.617Z,26.72
2019-06-01T16:55:08.757Z,25.96
2019-06-01T16:57:37.556Z,25.63
2019-06-01T17:00:08.279Z,25.47
2019-06-01T17:02:36.983Z,25.51
2019-06-01T17:05:07.263Z,25.24
2019-06-01T17:07:36.002Z,25.30
2019-06-01T17:10:21.783Z,25.24
2019-06-01T17:12:42.922Z,25.27
2019-06-01T17:15:10.531Z,25.17
2019-06-01T17:17:39.237Z,25.13
2019-06-01T17:20:27.462Z,25.09
2019-06-01T17:22:57.426Z,25.06
2019-06-01T17:25:26.378Z,24.96
2019-06-01T17:27:55.114Z,24.93
2019-06-01T17:30:23.876Z,24.82
2019-06-01T17:32:52.588Z,24.71
2019-06-01T17:35:21.389Z,24.60
2019-06-01T17:37:50.125Z,24.49
2019-06-01T17:40:35.643Z,24.30
2019-06-01T17:42:49.301Z,24.16
2019-06-01T17:45:18.046Z,24.02
2019-06-01T17:47:46.776Z,23.87
2019-06-01T17:50:18.252Z,23.71
2019-06-01T17:52:46.249Z,23.53
2019-06-01T17:55:32.738Z,23.45
2019-06-01T17:58:01.681Z,23.48
2019-06-01T18:00:30.600Z,23.40
2019-06-01T18:02:59.416Z,23.40
2019-06-01T18:05:28.294Z,23.41
2019-06-01T18:07:57.107Z,23.28
2019-06-01T18:10:26.714Z,22.99
2019-06-01T18:12:55.451Z,22.98
2019-06-01T18:15:24.170Z,23.04
2019-06-01T18:17:52.939Z,22.96
2019-06-01T18:20:21.858Z,22.78
2019-06-01T18:22:50.585Z,22.71
2019-06-01T18:25:21.629Z,22.55
2019-06-01T18:27:50.342Z,22.34
2019-06-01T18:30:19.605Z,22.20
2019-06-01T18:32:48.441Z,22.24
2019-06-01T18:35:19.651Z,22.15
2019-06-01T18:37:47.695Z,21.99
2019-06-01T18:40:18.173Z,21.95
2019-06-01T18:42:49.626Z,21.85
2019-06-01T18:45:19.441Z,21.72
2019-06-01T18:47:48.452Z,21.57
2019-06-01T18:50:18.407Z,21.48
2019-06-01T18:52:47.127Z,21.28
2019-06-01T18:55:16.117Z,21.22
2019-06-01T18:57:47.752Z,21.26
2019-06-01T19:00:16.865Z,21.33
2019-06-01T19:02:45.630Z,21.19
2019-06-01T19:05:15.524Z,21.07
2019-06-01T19:07:44.371Z,21.16
2019-06-01T19:10:15.684Z,21.03
2019-06-01T19:12:44.619Z,20.92
2019-06-01T19:15:27.579Z,20.69
2019-06-01T19:17:44.038Z,20.80
2019-06-01T19:20:15.296Z,20.86
2019-06-01T19:22:44.194Z,20.79
2019-06-01T19:25:13.261Z,20.74
2019-06-01T19:27:42.056Z,20.74
2019-06-01T19:30:11.497Z,20.69
2019-06-01T19:32:40.726Z,20.35
2019-06-01T19:35:11.235Z,20.15
2019-06-01T19:37:42.582Z,20.14
2019-06-01T19:40:11.718Z,20.31
2019-06-01T19:42:40.478Z,20.54
2019-06-01T19:45:22.535Z,20.79
2019-06-01T19:47:41.285Z,20.91
2019-06-01T19:50:10.373Z,21.09
2019-06-01T19:52:39.150Z,21.14
2019-06-01T19:55:08.948Z,21.16
2019-06-01T19:57:37.906Z,21.09
2019-06-01T20:00:07.921Z,21.09
2019-06-01T20:02:37.041Z,20.99
2019-06-01T20:05:06.970Z,20.89
2019-06-01T20:07:35.681Z,20.69
2019-06-01T20:10:06.850Z,20.51
2019-06-01T20:12:35.609Z,20.53
2019-06-01T20:15:06.224Z,20.62
2019-06-01T20:17:34.969Z,20.70
2019-06-01T20:20:05.114Z,20.75
2019-06-01T20:22:33.879Z,20.80
2019-06-01T20:25:02.699Z,20.82
2019-06-01T20:27:31.412Z,20.76
2019-06-01T20:30:00.156Z,20.67
2019-06-01T20:32:28.881Z,20.53
2019-06-01T20:34:57.638Z,20.45
2019-06-01T20:37:26.357Z,20.37
2019-06-01T20:39:55.076Z,20.32
2019-06-01T20:42:32.064Z,20.45
2019-06-01T20:44:54.323Z,20.61
2019-06-01T20:47:23.039Z,20.70
2019-06-01T20:49:51.825Z,20.61
2019-06-01T20:52:20.979Z,20.32
2019-06-01T20:54:49.847Z,20.21
2019-06-01T20:57:19.621Z,20.09
2019-06-01T20:59:48.404Z,20.20
2019-06-01T21:02:17.795Z,20.10
2019-06-01T21:04:46.857Z,19.80
2019-06-01T21:07:15.783Z,19.44
2019-06-01T21:09:44.531Z,19.52
2019-06-01T21:12:13.859Z,19.68
2019-06-01T21:14:42.691Z,19.67
2019-06-01T21:17:11.408Z,19.72
2019-06-01T21:19:40.126Z,19.80
2019-06-01T21:22:08.845Z,19.83
2019-06-01T21:24:37.560Z,19.88
2019-06-01T21:27:06.313Z,19.85
2019-06-01T21:29:35.022Z,19.89
2019-06-01T21:32:03.740Z,19.98
2019-06-01T21:34:32.482Z,20.00
2019-06-01T21:37:01.170Z,19.97
2019-06-01T21:39:29.929Z,20.06
2019-06-01T21:41:58.644Z,20.11
2019-06-01T21:44:27.351Z,20.18
2019-06-01T21:46:56.074Z,20.27
2019-06-01T21:49:25.899Z,20.23
2019-06-01T21:51:54.713Z,20.29
2019-06-01T21:54:24.605Z,20.22
2019-06-01T21:56:53.516Z,19.87
2019-06-01T21:59:22.714Z,19.74
2019-06-01T22:01:51.625Z,19.82
2019-06-01T22:04:20.805Z,19.68
2019-06-01T22:06:50.072Z,19.64
2019-06-01T22:09:19.137Z,19.62
2019-06-01T22:11:47.884Z,19.60
2019-06-01T22:14:17.372Z,19.49
2019-06-01T22:16:47.021Z,19.33
2019-06-01T22:19:15.735Z,19.19
2019-06-01T22:21:44.444Z,18.93
2019-06-01T22:24:13.160Z,18.95
2019-06-01T22:26:41.874Z,19.02
2019-06-01T22:29:10.835Z,19.03
2019-06-01T22:31:39.543Z,19.14
2019-06-01T22:34:08.251Z,19.32
2019-06-01T22:36:37.003Z,19.38
2019-06-01T22:39:08.124Z,19.38
2019-06-01T22:41:36.839Z,19.20
2019-06-01T22:44:05.784Z,19.16
2019-06-01T22:46:34.495Z,18.90
2019-06-01T22:49:03.206Z,18.54
2019-06-01T22:51:33.124Z,18.37
2019-06-01T22:54:02.165Z,18.42
2019-06-01T22:56:31.486Z,18.47
2019-06-01T22:59:00.431Z,18.43
2019-06-01T23:01:29.140Z,18.44
2019-06-01T23:03:57.862Z,18.52
2019-06-01T23:06:27.030Z,18.63
2019-06-01T23:08:55.806Z,18.59
2019-06-01T23:11:25.337Z,18.55
2019-06-01T23:13:54.138Z,18.50
2019-06-01T23:16:23.612Z,18.45
2019-06-01T23:18:52.420Z,18.50
2019-06-01T23:21:21.786Z,18.50
2019-06-01T23:23:50.672Z,18.55
2019-06-01T23:26:19.430Z,18.79
2019-06-01T23:28:48.158Z,18.86
2019-06-01T23:31:16.907Z,18.95
2019-06-01T23:33:45.703Z,18.97
2019-06-01T23:36:14.414Z,19.01
2019-06-01T23:38:43.135Z,19.05
2019-06-01T23:41:11.846Z,19.00
2019-06-01T23:43:40.558Z,18.98
2019-06-01T23:46:09.275Z,19.07
2019-06-01T23:48:38.001Z,19.19
2019-06-01T23:51:06.701Z,19.23
2019-06-01T23:53:35.445Z,19.25
2019-06-01T23:56:04.164Z,19.23
2019-06-01T23:58:32.878Z,19.31
